sensor_id;sensor_type;location;lat;lon;timestamp;pressure;altitude;pressure_sealevel;temperature;humidity
64862;BME280;62652;42.274;-71.436;2023-05-07T00:00:01;101040.0;;;21.11111111111111;32.5
64862;BME280;62652;42.274;-71.436;2023-05-07T00:01:00;101040.0;;;21.0;32.5
64862;BME280;62652;42.274;-71.436;2023-05-07T00:02:01;101040.0;;;21.0;31.9
64862;BME280;62652;42.274;-71.436;2023-05-07T00:03:00;101040.0;;;21.0;32.3
64862;BME280;62652;42.274;-71.436;2023-05-07T00:04:00;101040.0;;;21.0;32.2
64862;BME280;62652;42.274;-71.436;2023-05-07T00:05:01;101050.0;;;20.888888888888886;32.6
64862;BME280;62652;42.274;-71.436;2023-05-07T00:06:01;101050.0;;;20.888888888888886;32.4
64862;BME280;62652;42.274;-71.436;2023-05-07T00:07:00;101040.0;;;20.888888888888886;33.3
64862;BME280;62652;42.274;-71.436;2023-05-07T00:08:00;101040.0;;;20.777777777777782;33.7
64862;BME280;62652;42.274;-71.436;2023-05-07T00:09:01;101050.0;;;20.777777777777782;32.8
64862;BME280;62652;42.274;-71.436;2023-05-07T00:10:01;101040.0;;;20.777777777777782;32.8
64862;BME280;62652;42.274;-71.436;2023-05-07T00:11:01;101050.0;;;20.72222222222222;33.2
64862;BME280;62652;42.274;-71.436;2023-05-07T00:12:00;101040.0;;;20.72222222222222;33.5
64862;BME280;62652;42.274;-71.436;2023-05-07T00:13:01;101040.0;;;20.611111111111107;33.6
64862;BME280;62652;42.274;-71.436;2023-05-07T00:14:01;101040.0;;;20.611111111111107;32.9
64862;BME280;62652;42.274;-71.436;2023-05-07T00:15:02;101040.0;;;20.611111111111107;33.2
64862;BME280;62652;42.274;-71.436;2023-05-07T00:16:01;101040.0;;;20.500000000000004;33.7
64862;BME280;62652;42.274;-71.436;2023-05-07T00:17:01;101040.0;;;20.500000000000004;33.7
64862;BME280;62652;42.274;-71.436;2023-05-07T00:18:01;101040.0;;;20.500000000000004;33.9
64862;BME280;62652;42.274;-71.436;2023-05-07T00:19:01;101040.0;;;20.38888888888889;33.7
64862;BME280;62652;42.274;-71.436;2023-05-07T00:20:01;101050.0;;;20.38888888888889;33.9
64862;BME280;62652;42.274;-71.436;2023-05-07T00:21:00;101050.0;;;20.38888888888889;34.3
64862;BME280;62652;42.274;-71.436;2023-05-07T00:22:00;101050.0;;;20.27777777777778;34.0
64862;BME280;62652;42.274;-71.436;2023-05-07T00:23:01;101050.0;;;20.27777777777778;34.2
64862;BME280;62652;42.274;-71.436;2023-05-07T00:24:01;101050.0;;;20.222222222222225;34.2
64862;BME280;62652;42.274;-71.436;2023-05-07T00:25:00;101050.0;;;20.222222222222225;33.9
64862;BME280;62652;42.274;-71.436;2023-05-07T00:26:00;101050.0;;;20.222222222222225;34.1
64862;BME280;62652;42.274;-71.436;2023-05-07T00:27:00;101050.0;;;20.222222222222225;34.3
64862;BME280;62652;42.274;-71.436;2023-05-07T00:28:01;101050.0;;;20.222222222222225;33.9
64862;BME280;62652;42.274;-71.436;2023-05-07T00:29:01;101050.0;;;20.222222222222225;34.4
64862;BME280;62652;42.274;-71.436;2023-05-07T00:30:01;101050.0;;;20.11111111111111;34.6
64862;BME280;62652;42.274;-71.436;2023-05-07T00:31:00;101050.0;;;20.11111111111111;34.8
64862;BME280;62652;42.274;-71.436;2023-05-07T00:32:00;101050.0;;;20.11111111111111;34.8
64862;BME280;62652;42.274;-71.436;2023-05-07T00:33:00;101060.0;;;20.11111111111111;34.2
64862;BME280;62652;42.274;-71.436;2023-05-07T00:34:01;101060.0;;;20.11111111111111;34.3
64862;BME280;62652;42.274;-71.436;2023-05-07T00:35:01;101060.0;;;20.11111111111111;34.4
64862;BME280;62652;42.274;-71.436;2023-05-07T00:36:00;101060.0;;;20.11111111111111;34.3
64862;BME280;62652;42.274;-71.436;2023-05-07T00:37:01;101060.0;;;20.0;34.4
64862;BME280;62652;42.274;-71.436;2023-05-07T00:38:00;101060.0;;;20.0;34.7
64862;BME280;62652;42.274;-71.436;2023-05-07T00:39:01;101070.0;;;20.0;34.8
64862;BME280;62652;42.274;-71.436;2023-05-07T00:40:00;101070.0;;;19.88888888888889;35.1
64862;BME280;62652;42.274;-71.436;2023-05-07T00:41:00;101070.0;;;19.88888888888889;34.7
64862;BME280;62652;42.274;-71.436;2023-05-07T00:42:01;101070.0;;;19.88888888888889;34.3
64862;BME280;62652;42.274;-71.436;2023-05-07T00:43:01;101070.0;;;19.88888888888889;34.3
64862;BME280;62652;42.274;-71.436;2023-05-07T00:44:01;101070.0;;;19.88888888888889;34.6
64862;BME280;62652;42.274;-71.436;2023-05-07T00:45:00;101070.0;;;19.777777777777775;34.8
64862;BME280;62652;42.274;-71.436;2023-05-07T00:46:01;101070.0;;;19.777777777777775;34.9
64862;BME280;62652;42.274;-71.436;2023-05-07T00:47:03;101070.0;;;19.777777777777775;35.1
64862;BME280;62652;42.274;-71.436;2023-05-07T00:48:02;101070.0;;;19.72222222222222;35.3
64862;BME280;62652;42.274;-71.436;2023-05-07T00:49:01;101070.0;;;19.72222222222222;34.9
64862;BME280;62652;42.274;-71.436;2023-05-07T00:50:01;101070.0;;;19.72222222222222;35.3
64862;BME280;62652;42.274;-71.436;2023-05-07T00:51:00;101070.0;;;19.61111111111111;35.7
64862;BME280;62652;42.274;-71.436;2023-05-07T00:52:01;101070.0;;;19.61111111111111;35.4
64862;BME280;62652;42.274;-71.436;2023-05-07T00:53:00;101070.0;;;19.61111111111111;35.6
64862;BME280;62652;42.274;-71.436;2023-05-07T00:54:02;101070.0;;;19.61111111111111;35.5
64862;BME280;62652;42.274;-71.436;2023-05-07T00:55:04;101070.0;;;19.499999999999996;35.7
64862;BME280;62652;42.274;-71.436;2023-05-07T00:56:00;101070.0;;;19.499999999999996;35.8
64862;BME280;62652;42.274;-71.436;2023-05-07T00:57:02;101080.0;;;19.499999999999996;35.9
64862;BME280;62652;42.274;-71.436;2023-05-07T00:58:01;101070.0;;;19.499999999999996;35.8
64862;BME280;62652;42.274;-71.436;2023-05-07T00:59:01;101080.0;;;19.388888888888893;36.0
64862;BME280;62652;42.274;-71.436;2023-05-07T01:00:01;101070.0;;;19.388888888888893;36.4
64862;BME280;62652;42.274;-71.436;2023-05-07T01:01:01;101070.0;;;19.388888888888893;36.3
64862;BME280;62652;42.274;-71.436;2023-05-07T01:02:01;101070.0;;;19.27777777777778;36.1
64862;BME280;62652;42.274;-71.436;2023-05-07T01:03:00;101070.0;;;19.27777777777778;36.5
64862;BME280;62652;42.274;-71.436;2023-05-07T01:04:01;101070.0;;;19.27777777777778;36.3
64862;BME280;62652;42.274;-71.436;2023-05-07T01:05:02;101070.0;;;19.27777777777778;36.9
64862;BME280;62652;42.274;-71.436;2023-05-07T01:06:01;101070.0;;;19.222222222222218;36.6
64862;BME280;62652;42.274;-71.436;2023-05-07T01:07:01;101070.0;;;19.222222222222218;36.2
64862;BME280;62652;42.274;-71.436;2023-05-07T01:08:02;101070.0;;;19.222222222222218;36.4
64862;BME280;62652;42.274;-71.436;2023-05-07T01:09:01;101070.0;;;19.222222222222218;36.4
64862;BME280;62652;42.274;-71.436;2023-05-07T01:10:02;101070.0;;;19.111111111111114;36.5
64862;BME280;62652;42.274;-71.436;2023-05-07T01:11:01;101070.0;;;19.111111111111114;36.6
64862;BME280;62652;42.274;-71.436;2023-05-07T01:12:01;101070.0;;;19.111111111111114;36.8
64862;BME280;62652;42.274;-71.436;2023-05-07T01:13:01;101070.0;;;19.111111111111114;37.1
64862;BME280;62652;42.274;-71.436;2023-05-07T01:14:01;101080.0;;;19.0;37.2
64862;BME280;62652;42.274;-71.436;2023-05-07T01:15:01;101080.0;;;19.0;37.0
64862;BME280;62652;42.274;-71.436;2023-05-07T01:16:01;101080.0;;;19.0;37.4
64862;BME280;62652;42.274;-71.436;2023-05-07T01:17:01;101080.0;;;19.0;37.3
64862;BME280;62652;42.274;-71.436;2023-05-07T01:18:00;101080.0;;;19.0;37.0
64862;BME280;62652;42.274;-71.436;2023-05-07T01:19:01;101080.0;;;19.0;37.2
64862;BME280;62652;42.274;-71.436;2023-05-07T01:20:00;101080.0;;;18.88888888888889;37.2
64862;BME280;62652;42.274;-71.436;2023-05-07T01:21:01;101080.0;;;18.88888888888889;37.6
64862;BME280;62652;42.274;-71.436;2023-05-07T01:22:04;101090.0;;;18.88888888888889;37.8
64862;BME280;62652;42.274;-71.436;2023-05-07T01:23:01;101090.0;;;18.88888888888889;37.6
64862;BME280;62652;42.274;-71.436;2023-05-07T01:24:00;101090.0;;;18.88888888888889;37.2
64862;BME280;62652;42.274;-71.436;2023-05-07T01:25:00;101090.0;;;18.77777777777778;37.5
64862;BME280;62652;42.274;-71.436;2023-05-07T01:26:01;101090.0;;;18.77777777777778;37.4
64862;BME280;62652;42.274;-71.436;2023-05-07T01:27:00;101090.0;;;18.77777777777778;37.4
64862;BME280;62652;42.274;-71.436;2023-05-07T01:28:01;101090.0;;;18.77777777777778;37.5
64862;BME280;62652;42.274;-71.436;2023-05-07T01:29:00;101090.0;;;18.77777777777778;37.5
64862;BME280;62652;42.274;-71.436;2023-05-07T01:30:01;101090.0;;;18.72222222222222;37.6
64862;BME280;62652;42.274;-71.436;2023-05-07T01:31:03;101090.0;;;18.72222222222222;37.5
64862;BME280;62652;42.274;-71.436;2023-05-07T01:32:01;101090.0;;;18.72222222222222;37.6
64862;BME280;62652;42.274;-71.436;2023-05-07T01:33:04;101090.0;;;18.61111111111111;37.8
64862;BME280;62652;42.274;-71.436;2023-05-07T01:34:02;101090.0;;;18.72222222222222;37.5
64862;BME280;62652;42.274;-71.436;2023-05-07T01:35:03;101090.0;;;18.61111111111111;37.8
64862;BME280;62652;42.274;-71.436;2023-05-07T01:36:01;101090.0;;;18.61111111111111;37.6
64862;BME280;62652;42.274;-71.436;2023-05-07T01:37:01;101090.0;;;18.61111111111111;38.0
64862;BME280;62652;42.274;-71.436;2023-05-07T01:38:02;101090.0;;;18.61111111111111;37.6
64862;BME280;62652;42.274;-71.436;2023-05-07T01:39:02;101090.0;;;18.61111111111111;38.2
64862;BME280;62652;42.274;-71.436;2023-05-07T01:40:01;101090.0;;;18.61111111111111;37.6
64862;BME280;62652;42.274;-71.436;2023-05-07T01:41:01;101090.0;;;18.5;38.1
64862;BME280;62652;42.274;-71.436;2023-05-07T01:42:01;101090.0;;;18.5;38.2
64862;BME280;62652;42.274;-71.436;2023-05-07T01:43:02;101090.0;;;18.5;37.8
64862;BME280;62652;42.274;-71.436;2023-05-07T01:44:01;101090.0;;;18.5;38.6
64862;BME280;62652;42.274;-71.436;2023-05-07T01:45:01;101090.0;;;18.5;38.1
64862;BME280;62652;42.274;-71.436;2023-05-07T01:46:01;101090.0;;;18.5;38.4
64862;BME280;62652;42.274;-71.436;2023-05-07T01:47:01;101100.0;;;18.5;38.5
64862;BME280;62652;42.274;-71.436;2023-05-07T01:48:01;101100.0;;;18.388888888888886;38.7
64862;BME280;62652;42.274;-71.436;2023-05-07T01:49:01;101100.0;;;18.388888888888886;38.5
64862;BME280;62652;42.274;-71.436;2023-05-07T01:50:01;101100.0;;;18.277777777777782;38.6
64862;BME280;62652;42.274;-71.436;2023-05-07T01:51:01;101100.0;;;18.277777777777782;39.0
64862;BME280;62652;42.274;-71.436;2023-05-07T01:52:01;101100.0;;;18.277777777777782;38.7
64862;BME280;62652;42.274;-71.436;2023-05-07T01:53:01;101100.0;;;18.277777777777782;38.7
64862;BME280;62652;42.274;-71.436;2023-05-07T01:54:01;101100.0;;;18.22222222222222;38.9
64862;BME280;62652;42.274;-71.436;2023-05-07T01:55:01;101090.0;;;18.22222222222222;38.9
64862;BME280;62652;42.274;-71.436;2023-05-07T01:56:01;101100.0;;;18.22222222222222;39.2
64862;BME280;62652;42.274;-71.436;2023-05-07T01:57:01;101090.0;;;18.22222222222222;39.4
64862;BME280;62652;42.274;-71.436;2023-05-07T01:58:01;101090.0;;;18.111111111111107;39.3
64862;BME280;62652;42.274;-71.436;2023-05-07T01:59:01;101090.0;;;18.111111111111107;39.4
64862;BME280;62652;42.274;-71.436;2023-05-07T02:00:01;101090.0;;;18.111111111111107;40.0
64862;BME280;62652;42.274;-71.436;2023-05-07T02:01:00;101090.0;;;18.111111111111107;39.5
64862;BME280;62652;42.274;-71.436;2023-05-07T02:02:00;101090.0;;;18.111111111111107;39.2
64862;BME280;62652;42.274;-71.436;2023-05-07T02:03:01;101090.0;;;18.111111111111107;39.2
64862;BME280;62652;42.274;-71.436;2023-05-07T02:04:01;101090.0;;;18.111111111111107;39.5
64862;BME280;62652;42.274;-71.436;2023-05-07T02:05:01;101090.0;;;18.000000000000004;39.5
64862;BME280;62652;42.274;-71.436;2023-05-07T02:06:00;101090.0;;;18.000000000000004;39.4
64862;BME280;62652;42.274;-71.436;2023-05-07T02:07:00;101090.0;;;18.000000000000004;39.6
64862;BME280;62652;42.274;-71.436;2023-05-07T02:08:00;101090.0;;;18.000000000000004;39.2
64862;BME280;62652;42.274;-71.436;2023-05-07T02:09:01;101090.0;;;18.000000000000004;39.6
64862;BME280;62652;42.274;-71.436;2023-05-07T02:10:00;101090.0;;;18.000000000000004;39.5
64862;BME280;62652;42.274;-71.436;2023-05-07T02:11:01;101080.0;;;18.000000000000004;39.4
64862;BME280;62652;42.274;-71.436;2023-05-07T02:12:00;101090.0;;;18.000000000000004;39.5
64862;BME280;62652;42.274;-71.436;2023-05-07T02:13:01;101090.0;;;18.000000000000004;39.4
64862;BME280;62652;42.274;-71.436;2023-05-07T02:14:01;101090.0;;;18.000000000000004;39.7
64862;BME280;62652;42.274;-71.436;2023-05-07T02:15:00;101090.0;;;17.88888888888889;39.8
64862;BME280;62652;42.274;-71.436;2023-05-07T02:16:01;101090.0;;;17.88888888888889;40.0
64862;BME280;62652;42.274;-71.436;2023-05-07T02:17:00;101090.0;;;17.88888888888889;40.1
64862;BME280;62652;42.274;-71.436;2023-05-07T02:18:03;101090.0;;;17.77777777777778;40.2
64862;BME280;62652;42.274;-71.436;2023-05-07T02:19:01;101090.0;;;17.77777777777778;39.8
64862;BME280;62652;42.274;-71.436;2023-05-07T02:20:00;101090.0;;;17.77777777777778;40.1
64862;BME280;62652;42.274;-71.436;2023-05-07T02:21:01;101090.0;;;17.77777777777778;40.0
64862;BME280;62652;42.274;-71.436;2023-05-07T02:22:01;101090.0;;;17.77777777777778;39.9
64862;BME280;62652;42.274;-71.436;2023-05-07T02:23:00;101090.0;;;17.77777777777778;39.9
64862;BME280;62652;42.274;-71.436;2023-05-07T02:24:00;101090.0;;;17.72222222222222;39.8
64862;BME280;62652;42.274;-71.436;2023-05-07T02:25:01;101090.0;;;17.72222222222222;39.9
64862;BME280;62652;42.274;-71.436;2023-05-07T02:26:00;101090.0;;;17.72222222222222;40.1
64862;BME280;62652;42.274;-71.436;2023-05-07T02:27:01;101090.0;;;17.72222222222222;40.1
64862;BME280;62652;42.274;-71.436;2023-05-07T02:28:01;101090.0;;;17.61111111111111;40.3
64862;BME280;62652;42.274;-71.436;2023-05-07T02:29:01;101100.0;;;17.61111111111111;40.2
64862;BME280;62652;42.274;-71.436;2023-05-07T02:30:01;101090.0;;;17.61111111111111;40.2
64862;BME280;62652;42.274;-71.436;2023-05-07T02:31:02;101100.0;;;17.61111111111111;40.5
64862;BME280;62652;42.274;-71.436;2023-05-07T02:32:00;101100.0;;;17.61111111111111;40.5
64862;BME280;62652;42.274;-71.436;2023-05-07T02:33:00;101090.0;;;17.61111111111111;40.4
64862;BME280;62652;42.274;-71.436;2023-05-07T02:34:01;101100.0;;;17.61111111111111;40.2
64862;BME280;62652;42.274;-71.436;2023-05-07T02:35:00;101100.0;;;17.5;40.5
64862;BME280;62652;42.274;-71.436;2023-05-07T02:36:07;101100.0;;;17.5;40.6
64862;BME280;62652;42.274;-71.436;2023-05-07T02:37:00;101100.0;;;17.5;41.0
64862;BME280;62652;42.274;-71.436;2023-05-07T02:38:00;101090.0;;;17.38888888888889;41.0
64862;BME280;62652;42.274;-71.436;2023-05-07T02:39:00;101090.0;;;17.38888888888889;40.7
64862;BME280;62652;42.274;-71.436;2023-05-07T02:40:00;101100.0;;;17.38888888888889;40.7
64862;BME280;62652;42.274;-71.436;2023-05-07T02:41:01;101090.0;;;17.38888888888889;41.0
64862;BME280;62652;42.274;-71.436;2023-05-07T02:42:01;101100.0;;;17.38888888888889;40.7
64862;BME280;62652;42.274;-71.436;2023-05-07T02:43:01;101100.0;;;17.27777777777778;41.2
64862;BME280;62652;42.274;-71.436;2023-05-07T02:44:00;101090.0;;;17.27777777777778;41.2
64862;BME280;62652;42.274;-71.436;2023-05-07T02:45:01;101100.0;;;17.27777777777778;41.3
64862;BME280;62652;42.274;-71.436;2023-05-07T02:46:02;101090.0;;;17.27777777777778;41.4
64862;BME280;62652;42.274;-71.436;2023-05-07T02:47:01;101090.0;;;17.22222222222222;41.6
64862;BME280;62652;42.274;-71.436;2023-05-07T02:48:00;101090.0;;;17.22222222222222;41.7
64862;BME280;62652;42.274;-71.436;2023-05-07T02:49:00;101090.0;;;17.22222222222222;41.9
64862;BME280;62652;42.274;-71.436;2023-05-07T02:50:00;101090.0;;;17.22222222222222;42.0
64862;BME280;62652;42.274;-71.436;2023-05-07T02:51:01;101100.0;;;17.22222222222222;42.3
64862;BME280;62652;42.274;-71.436;2023-05-07T02:52:01;101100.0;;;17.11111111111111;42.5
64862;BME280;62652;42.274;-71.436;2023-05-07T02:53:01;101100.0;;;17.11111111111111;42.4
64862;BME280;62652;42.274;-71.436;2023-05-07T02:54:00;101100.0;;;17.11111111111111;42.5
64862;BME280;62652;42.274;-71.436;2023-05-07T02:55:00;101100.0;;;17.11111111111111;42.5
64862;BME280;62652;42.274;-71.436;2023-05-07T02:56:01;101100.0;;;17.0;42.6
64862;BME280;62652;42.274;-71.436;2023-05-07T02:57:00;101100.0;;;17.0;43.2
64862;BME280;62652;42.274;-71.436;2023-05-07T02:58:01;101090.0;;;17.0;42.2
64862;BME280;62652;42.274;-71.436;2023-05-07T02:59:00;101100.0;;;17.0;42.6
64862;BME280;62652;42.274;-71.436;2023-05-07T03:00:11;101100.0;;;16.88888888888889;42.9
64862;BME280;62652;42.274;-71.436;2023-05-07T03:01:00;101090.0;;;16.88888888888889;43.0
64862;BME280;62652;42.274;-71.436;2023-05-07T03:02:01;101090.0;;;16.88888888888889;43.0
64862;BME280;62652;42.274;-71.436;2023-05-07T03:03:00;101100.0;;;16.77777777777778;43.5
64862;BME280;62652;42.274;-71.436;2023-05-07T03:04:00;101100.0;;;16.77777777777778;43.6
64862;BME280;62652;42.274;-71.436;2023-05-07T03:05:00;101100.0;;;16.77777777777778;43.7
64862;BME280;62652;42.274;-71.436;2023-05-07T03:06:01;101100.0;;;16.77777777777778;44.4
64862;BME280;62652;42.274;-71.436;2023-05-07T03:07:01;101100.0;;;16.72222222222222;43.8
64862;BME280;62652;42.274;-71.436;2023-05-07T03:08:01;101100.0;;;16.72222222222222;43.8
64862;BME280;62652;42.274;-71.436;2023-05-07T03:09:01;101100.0;;;16.61111111111111;43.7
64862;BME280;62652;42.274;-71.436;2023-05-07T03:10:00;101090.0;;;16.61111111111111;44.2
64862;BME280;62652;42.274;-71.436;2023-05-07T03:11:01;101100.0;;;16.61111111111111;44.1
64862;BME280;62652;42.274;-71.436;2023-05-07T03:12:01;101100.0;;;16.61111111111111;44.8
64862;BME280;62652;42.274;-71.436;2023-05-07T03:13:01;101100.0;;;16.5;44.9
64862;BME280;62652;42.274;-71.436;2023-05-07T03:14:01;101100.0;;;16.5;44.3
64862;BME280;62652;42.274;-71.436;2023-05-07T03:15:01;101090.0;;;16.5;44.7
64862;BME280;62652;42.274;-71.436;2023-05-07T03:16:00;101090.0;;;16.5;44.7
64862;BME280;62652;42.274;-71.436;2023-05-07T03:17:00;101090.0;;;16.5;44.6
64862;BME280;62652;42.274;-71.436;2023-05-07T03:18:01;101100.0;;;16.5;44.0
64862;BME280;62652;42.274;-71.436;2023-05-07T03:19:01;101090.0;;;16.5;44.6
64862;BME280;62652;42.274;-71.436;2023-05-07T03:20:01;101090.0;;;16.5;44.5
64862;BME280;62652;42.274;-71.436;2023-05-07T03:21:00;101090.0;;;16.5;44.7
64862;BME280;62652;42.274;-71.436;2023-05-07T03:22:00;101090.0;;;16.5;44.6
64862;BME280;62652;42.274;-71.436;2023-05-07T03:23:00;101100.0;;;16.5;44.5
64862;BME280;62652;42.274;-71.436;2023-05-07T03:24:01;101100.0;;;16.38888888888889;45.1
64862;BME280;62652;42.274;-71.436;2023-05-07T03:25:01;101100.0;;;16.38888888888889;45.0
64862;BME280;62652;42.274;-71.436;2023-05-07T03:26:00;101100.0;;;16.38888888888889;45.4
64862;BME280;62652;42.274;-71.436;2023-05-07T03:27:00;101100.0;;;16.27777777777778;45.2
64862;BME280;62652;42.274;-71.436;2023-05-07T03:28:01;101100.0;;;16.27777777777778;44.9
64862;BME280;62652;42.274;-71.436;2023-05-07T03:29:00;101100.0;;;16.27777777777778;45.1
64862;BME280;62652;42.274;-71.436;2023-05-07T03:30:01;101100.0;;;16.27777777777778;45.5
64862;BME280;62652;42.274;-71.436;2023-05-07T03:31:01;101100.0;;;16.27777777777778;45.7
64862;BME280;62652;42.274;-71.436;2023-05-07T03:32:00;101100.0;;;16.27777777777778;45.7
64862;BME280;62652;42.274;-71.436;2023-05-07T03:33:00;101100.0;;;16.22222222222222;45.6
64862;BME280;62652;42.274;-71.436;2023-05-07T03:34:01;101100.0;;;16.22222222222222;45.6
64862;BME280;62652;42.274;-71.436;2023-05-07T03:35:00;101100.0;;;16.22222222222222;44.8
64862;BME280;62652;42.274;-71.436;2023-05-07T03:36:01;101100.0;;;16.22222222222222;45.3
64862;BME280;62652;42.274;-71.436;2023-05-07T03:37:01;101100.0;;;16.22222222222222;45.1
64862;BME280;62652;42.274;-71.436;2023-05-07T03:38:01;101090.0;;;16.22222222222222;45.3
64862;BME280;62652;42.274;-71.436;2023-05-07T03:39:00;101090.0;;;16.27777777777778;45.2
64862;BME280;62652;42.274;-71.436;2023-05-07T03:40:00;101090.0;;;16.27777777777778;45.3
64862;BME280;62652;42.274;-71.436;2023-05-07T03:41:01;101090.0;;;16.27777777777778;45.7
64862;BME280;62652;42.274;-71.436;2023-05-07T03:42:01;101090.0;;;16.22222222222222;45.5
64862;BME280;62652;42.274;-71.436;2023-05-07T03:43:01;101090.0;;;16.22222222222222;45.6
64862;BME280;62652;42.274;-71.436;2023-05-07T03:44:01;101090.0;;;16.11111111111111;45.5
64862;BME280;62652;42.274;-71.436;2023-05-07T03:45:00;101090.0;;;16.22222222222222;45.2
64862;BME280;62652;42.274;-71.436;2023-05-07T03:46:01;101090.0;;;16.22222222222222;45.8
64862;BME280;62652;42.274;-71.436;2023-05-07T03:47:00;101090.0;;;16.22222222222222;45.4
64862;BME280;62652;42.274;-71.436;2023-05-07T03:48:00;101090.0;;;16.22222222222222;45.7
64862;BME280;62652;42.274;-71.436;2023-05-07T03:49:01;101090.0;;;16.22222222222222;45.8
64862;BME280;62652;42.274;-71.436;2023-05-07T03:50:00;101090.0;;;16.11111111111111;45.9
64862;BME280;62652;42.274;-71.436;2023-05-07T03:51:01;101090.0;;;16.11111111111111;45.6
64862;BME280;62652;42.274;-71.436;2023-05-07T03:52:00;101090.0;;;16.11111111111111;45.5
64862;BME280;62652;42.274;-71.436;2023-05-07T03:53:01;101090.0;;;16.11111111111111;45.6
64862;BME280;62652;42.274;-71.436;2023-05-07T03:54:00;101090.0;;;16.11111111111111;45.7
64862;BME280;62652;42.274;-71.436;2023-05-07T03:55:01;101090.0;;;16.11111111111111;45.8
64862;BME280;62652;42.274;-71.436;2023-05-07T03:56:01;101090.0;;;16.11111111111111;46.0
64862;BME280;62652;42.274;-71.436;2023-05-07T03:57:00;101090.0;;;16.11111111111111;45.9
64862;BME280;62652;42.274;-71.436;2023-05-07T03:58:01;101090.0;;;16.0;46.1
64862;BME280;62652;42.274;-71.436;2023-05-07T03:59:01;101090.0;;;16.0;46.6
64862;BME280;62652;42.274;-71.436;2023-05-07T04:00:01;101090.0;;;15.88888888888889;46.6
64862;BME280;62652;42.274;-71.436;2023-05-07T04:01:01;101090.0;;;15.88888888888889;46.9
64862;BME280;62652;42.274;-71.436;2023-05-07T04:02:00;101090.0;;;15.88888888888889;46.5
64862;BME280;62652;42.274;-71.436;2023-05-07T04:03:01;101080.0;;;15.88888888888889;46.4
64862;BME280;62652;42.274;-71.436;2023-05-07T04:04:01;101090.0;;;15.88888888888889;46.5
64862;BME280;62652;42.274;-71.436;2023-05-07T04:05:01;101080.0;;;15.88888888888889;46.7
64862;BME280;62652;42.274;-71.436;2023-05-07T04:06:00;101090.0;;;15.88888888888889;47.2
64862;BME280;62652;42.274;-71.436;2023-05-07T04:07:00;101080.0;;;15.88888888888889;46.3
64862;BME280;62652;42.274;-71.436;2023-05-07T04:08:01;101080.0;;;15.88888888888889;46.8
64862;BME280;62652;42.274;-71.436;2023-05-07T04:09:00;101080.0;;;15.88888888888889;45.9
64862;BME280;62652;42.274;-71.436;2023-05-07T04:10:00;101080.0;;;15.88888888888889;46.3
64862;BME280;62652;42.274;-71.436;2023-05-07T04:11:01;101080.0;;;15.88888888888889;46.7
64862;BME280;62652;42.274;-71.436;2023-05-07T04:12:01;101080.0;;;15.88888888888889;46.1
64862;BME280;62652;42.274;-71.436;2023-05-07T04:13:01;101080.0;;;15.88888888888889;46.5
64862;BME280;62652;42.274;-71.436;2023-05-07T04:14:01;101080.0;;;15.777777777777779;46.5
64862;BME280;62652;42.274;-71.436;2023-05-07T04:15:01;101070.0;;;15.777777777777779;46.6
64862;BME280;62652;42.274;-71.436;2023-05-07T04:16:02;101080.0;;;15.777777777777779;46.4
64862;BME280;62652;42.274;-71.436;2023-05-07T04:17:00;101070.0;;;15.777777777777779;46.9
64862;BME280;62652;42.274;-71.436;2023-05-07T04:18:01;101080.0;;;15.777777777777779;47.5
64862;BME280;62652;42.274;-71.436;2023-05-07T04:19:00;101080.0;;;15.722222222222221;47.6
64862;BME280;62652;42.274;-71.436;2023-05-07T04:20:00;101070.0;;;15.722222222222221;47.6
64862;BME280;62652;42.274;-71.436;2023-05-07T04:21:01;101070.0;;;15.722222222222221;47.6
64862;BME280;62652;42.274;-71.436;2023-05-07T04:22:01;101070.0;;;15.61111111111111;48.2
64862;BME280;62652;42.274;-71.436;2023-05-07T04:23:00;101070.0;;;15.61111111111111;47.9
64862;BME280;62652;42.274;-71.436;2023-05-07T04:24:02;101070.0;;;15.61111111111111;48.0
64862;BME280;62652;42.274;-71.436;2023-05-07T04:25:01;101070.0;;;15.61111111111111;49.1
64862;BME280;62652;42.274;-71.436;2023-05-07T04:26:01;101060.0;;;15.61111111111111;48.5
64862;BME280;62652;42.274;-71.436;2023-05-07T04:27:01;101070.0;;;15.61111111111111;49.1
64862;BME280;62652;42.274;-71.436;2023-05-07T04:28:01;101060.0;;;15.5;49.5
64862;BME280;62652;42.274;-71.436;2023-05-07T04:29:00;101070.0;;;15.5;50.1
64862;BME280;62652;42.274;-71.436;2023-05-07T04:30:00;101070.0;;;15.5;50.0
64862;BME280;62652;42.274;-71.436;2023-05-07T04:31:01;101070.0;;;15.38888888888889;50.6
64862;BME280;62652;42.274;-71.436;2023-05-07T04:32:00;101070.0;;;15.38888888888889;50.7
64862;BME280;62652;42.274;-71.436;2023-05-07T04:33:01;101060.0;;;15.38888888888889;51.2
64862;BME280;62652;42.274;-71.436;2023-05-07T04:34:00;101060.0;;;15.277777777777779;51.5
64862;BME280;62652;42.274;-71.436;2023-05-07T04:35:00;101060.0;;;15.277777777777779;52.3
64862;BME280;62652;42.274;-71.436;2023-05-07T04:36:02;101060.0;;;15.222222222222221;52.8